Time;durP1;ratioP1;P1;durP2;ratioP2;P2;SDS_P1;SDS_P2;PMS_P1;PMS_P2;Temp;Humidity;BMP_temperature;BMP_pressure;BME280_temperature;BME280_humidity;BME280_pressure;Samples;Min_cycle;Max_cycle;Signal;HPM_P1;HPM_P2
2022/09/15 00:02:29;;;;;;;;;1.25;1.00;;;;;;;;5024991;28;45376;-81
2022/09/15 00:04:54;;;;;;;;;2.00;2.00;;;;;;;;5035037;28;45528;-80
2022/09/15 00:07:23;;;;;;;;;2.00;1.00;;;;;;;;5037674;28;47062;-80
2022/09/15 00:09:48;;;;;;;;;1.00;1.00;;;;;;;;5007812;28;45376;-80
2022/09/15 00:12:13;;;;;;;;;1.25;1.25;;;;;;;;5039742;28;45804;-83
2022/09/15 00:14:39;;;;;;;;;3.00;1.00;;;;;;;;5033137;28;45528;-82
2022/09/15 00:17:04;;;;;;;;;1.75;1.00;;;;;;;;5047122;28;45733;-83
2022/09/15 00:19:29;;;;;;;;;2.00;2.00;;;;;;;;5028713;28;45425;-82
2022/09/15 00:21:55;;;;;;;;;2.25;0.50;;;;;;;;5043692;28;45509;-80
2022/09/15 00:24:20;;;;;;;;;1.00;1.00;;;;;;;;5048477;28;45626;-82
2022/09/15 00:26:45;;;;;;;;;0.00;0.00;;;;;;;;5026982;28;46790;-81
2022/09/15 00:29:11;;;;;;;;;0.75;0.75;;;;;;;;5038841;28;45628;-82
2022/09/15 00:31:36;;;;;;;;;3.00;1.67;;;;;;;;5038682;28;45284;-81
2022/09/15 00:34:01;;;;;;;;;2.67;2.00;;;;;;;;5039379;28;45394;-79
2022/09/15 00:36:27;;;;;;;;;3.25;2.00;;;;;;;;5045036;28;46316;-82
2022/09/15 00:38:53;;;;;;;;;1.00;1.00;;;;;;;;5021866;28;45772;-83
2022/09/15 00:41:20;;;;;;;;;2.25;2.25;;;;;;;;5050236;28;45409;-84
2022/09/15 00:43:54;;;;;;;;;2.00;0.50;;;;;;;;5022590;28;45792;-84
2022/09/15 00:46:25;;;;;;;;;2.00;2.00;;;;;;;;5037722;28;45713;-84
2022/09/15 00:48:53;;;;;;;;;1.75;1.75;;;;;;;;5035723;28;45787;-82
2022/09/15 00:51:22;;;;;;;;;2.00;2.00;;;;;;;;5037976;28;45346;-84
2022/09/15 00:53:48;;;;;;;;;3.00;3.00;;;;;;;;5018869;28;46145;-83
2022/09/15 00:56:16;;;;;;;;;4.00;3.33;;;;;;;;5042029;28;46503;-79
2022/09/15 00:58:47;;;;;;;;;5.00;3.67;;;;;;;;5030590;28;45727;-80
2022/09/15 01:01:13;;;;;;;;;2.00;1.00;;;;;;;;5013110;28;45973;-81
2022/09/15 01:03:39;;;;;;;;;1.00;1.00;;;;;;;;5013145;28;46235;-79
2022/09/15 01:06:12;;;;;;;;;1.00;1.00;;;;;;;;5041615;28;46066;-83
2022/09/15 01:08:40;;;;;;;;;1.00;1.00;;;;;;;;5037684;28;45418;-83
2022/09/15 01:11:05;;;;;;;;;2.00;1.00;;;;;;;;5036171;28;45434;-83
2022/09/15 01:13:31;;;;;;;;;1.00;1.00;;;;;;;;5025155;28;45825;-83
2022/09/15 01:15:56;;;;;;;;;2.00;2.00;;;;;;;;5020131;28;47666;-83
2022/09/15 01:18:22;;;;;;;;;0.50;0.50;;;;;;;;5036567;28;45434;-83
2022/09/15 01:21:02;;;;;;;;;0.00;0.00;;;;;;;;5044169;28;45723;-83
2022/09/15 01:23:46;;;;;;;;;1.00;0.00;;;;;;;;5051951;28;45876;-85
2022/09/15 01:26:31;;;;;;;;;1.00;1.00;;;;;;;;5019090;28;47111;-83
2022/09/15 01:29:15;;;;;;;;;0.67;0.67;;;;;;;;5030248;28;46099;-82
2022/09/15 01:34:32;;;;;;;;;1.00;1.00;;;;;;;;5035745;28;45533;-83
2022/09/15 01:37:05;;;;;;;;;0.00;0.00;;;;;;;;5022341;28;47020;-84
2022/09/15 01:39:37;;;;;;;;;1.00;1.00;;;;;;;;5056822;28;45405;-80
2022/09/15 01:42:07;;;;;;;;;1.00;1.00;;;;;;;;5024262;28;45421;-83
2022/09/15 01:44:36;;;;;;;;;1.33;1.33;;;;;;;;5034353;28;45574;-83
2022/09/15 01:47:04;;;;;;;;;3.67;2.00;;;;;;;;5018674;28;45438;-82
2022/09/15 01:49:34;;;;;;;;;6.67;6.00;;;;;;;;5028856;28;45358;-81
2022/09/15 01:51:59;;;;;;;;;6.67;5.33;;;;;;;;5060942;28;45326;-84
2022/09/15 01:54:34;;;;;;;;;7.00;5.67;;;;;;;;5039389;28;46629;-83
2022/09/15 01:57:01;;;;;;;;;5.33;5.33;;;;;;;;5037899;28;45805;-84
2022/09/15 01:59:27;;;;;;;;;10.33;9.67;;;;;;;;5040275;28;45620;-84
2022/09/15 02:02:01;;;;;;;;;9.67;8.33;;;;;;;;5053862;28;44902;-82
2022/09/15 02:04:30;;;;;;;;;11.33;10.00;;;;;;;;5039909;28;45601;-83
2022/09/15 02:07:06;;;;;;;;;6.00;6.00;;;;;;;;5034634;28;47409;-83
2022/09/15 02:09:37;;;;;;;;;10.00;8.33;;;;;;;;5018246;28;45408;-84
2022/09/15 02:12:09;;;;;;;;;14.67;12.33;;;;;;;;5041125;28;45529;-81
2022/09/15 02:14:37;;;;;;;;;8.00;6.67;;;;;;;;5028678;28;45281;-81
2022/09/15 02:17:04;;;;;;;;;13.33;13.33;;;;;;;;5041393;28;45429;-81
2022/09/15 02:19:39;;;;;;;;;12.00;10.00;;;;;;;;5061978;28;45141;-80
2022/09/15 02:22:11;;;;;;;;;11.33;9.67;;;;;;;;5051105;28;44706;-80
2022/09/15 02:24:43;;;;;;;;;7.00;7.00;;;;;;;;5047614;28;45748;-85
2022/09/15 02:27:11;;;;;;;;;10.67;8.00;;;;;;;;5075739;28;45345;-85
2022/09/15 02:29:37;;;;;;;;;11.33;10.00;;;;;;;;5061795;28;44773;-83
2022/09/15 02:32:05;;;;;;;;;10.33;7.67;;;;;;;;5038212;28;44836;-84
2022/09/15 02:34:33;;;;;;;;;6.33;5.00;;;;;;;;5022054;28;45481;-82
2022/09/15 02:36:59;;;;;;;;;7.33;7.33;;;;;;;;5043521;28;47188;-83
2022/09/15 02:39:30;;;;;;;;;4.00;4.00;;;;;;;;5026100;28;45613;-82
2022/09/15 02:41:56;;;;;;;;;4.00;4.00;;;;;;;;5024063;28;45433;-81
2022/09/15 02:44:22;;;;;;;;;7.67;6.00;;;;;;;;5021883;28;46222;-81
2022/09/15 02:46:47;;;;;;;;;7.33;5.00;;;;;;;;5023648;28;47676;-82
2022/09/15 02:49:13;;;;;;;;;9.00;6.67;;;;;;;;5018574;28;45705;-81
2022/09/15 02:51:38;;;;;;;;;9.00;5.33;;;;;;;;5038815;28;45598;-82
2022/09/15 02:54:03;;;;;;;;;8.67;6.67;;;;;;;;5012054;28;46960;-81
2022/09/15 02:56:30;;;;;;;;;8.33;7.00;;;;;;;;5022844;28;46784;-84
2022/09/15 02:58:55;;;;;;;;;7.00;6.33;;;;;;;;5034653;28;46467;-83
2022/09/15 03:01:25;;;;;;;;;9.50;7.50;;;;;;;;5037701;28;45481;-84
2022/09/15 03:03:50;;;;;;;;;11.00;8.00;;;;;;;;5039784;28;45439;-82
2022/09/15 03:06:16;;;;;;;;;7.00;7.00;;;;;;;;5034153;28;45515;-80
2022/09/15 03:08:49;;;;;;;;;7.33;7.00;;;;;;;;5031849;28;45368;-81
2022/09/15 03:11:15;;;;;;;;;11.00;9.33;;;;;;;;5032847;28;45803;-79
2022/09/15 03:13:41;;;;;;;;;7.00;5.67;;;;;;;;5036065;28;45582;-81
2022/09/15 03:16:10;;;;;;;;;6.67;6.00;;;;;;;;5015271;28;48315;-80
2022/09/15 03:18:38;;;;;;;;;9.67;8.33;;;;;;;;5032807;28;45565;-80
2022/09/15 03:21:04;;;;;;;;;10.00;7.33;;;;;;;;5040708;28;45511;-80
2022/09/15 03:23:30;;;;;;;;;10.33;7.67;;;;;;;;5038766;28;45459;-82
2022/09/15 03:25:57;;;;;;;;;5.00;5.00;;;;;;;;5036877;28;46785;-81
2022/09/15 03:28:25;;;;;;;;;8.00;7.00;;;;;;;;5014862;28;45693;-82
2022/09/15 03:30:51;;;;;;;;;11.33;7.67;;;;;;;;5034282;28;45409;-84
2022/09/15 03:33:17;;;;;;;;;10.67;8.33;;;;;;;;5027621;28;47077;-81
2022/09/15 03:35:44;;;;;;;;;11.33;8.00;;;;;;;;5043129;28;47405;-81
2022/09/15 03:38:10;;;;;;;;;7.67;6.67;;;;;;;;5032729;28;45867;-81
2022/09/15 03:40:36;;;;;;;;;10.00;9.67;;;;;;;;5048579;28;45396;-82
2022/09/15 03:43:04;;;;;;;;;10.67;8.67;;;;;;;;5052357;28;46789;-81
2022/09/15 03:45:30;;;;;;;;;11.67;10.00;;;;;;;;5029270;28;45720;-80
2022/09/15 03:47:55;;;;;;;;;9.67;9.67;;;;;;;;5038525;28;45789;-81
2022/09/15 03:50:20;;;;;;;;;11.00;11.00;;;;;;;;5051370;28;45327;-83
2022/09/15 03:52:46;;;;;;;;;10.00;8.67;;;;;;;;5035731;28;45408;-83
2022/09/15 03:55:12;;;;;;;;;11.00;9.67;;;;;;;;5053176;28;46236;-83
2022/09/15 03:57:38;;;;;;;;;12.67;12.67;;;;;;;;5022431;28;45796;-84
2022/09/15 04:00:06;;;;;;;;;13.67;12.00;;;;;;;;5010502;28;45402;-82
2022/09/15 04:02:32;;;;;;;;;15.67;15.67;;;;;;;;5030955;28;45411;-82
2022/09/15 04:04:57;;;;;;;;;14.00;12.00;;;;;;;;5040901;28;48422;-81
2022/09/15 04:07:24;;;;;;;;;21.67;13.67;;;;;;;;5037154;28;45380;-81
2022/09/15 04:09:49;;;;;;;;;12.67;10.67;;;;;;;;5026047;28;45435;-83
2022/09/15 04:12:14;;;;;;;;;13.00;13.00;;;;;;;;5027607;28;46120;-83
2022/09/15 04:14:40;;;;;;;;;18.67;13.67;;;;;;;;5041697;28;47327;-83
2022/09/15 04:17:06;;;;;;;;;13.00;13.00;;;;;;;;5048497;28;45830;-84
2022/09/15 04:19:32;;;;;;;;;19.00;15.00;;;;;;;;5060975;28;45438;-82
2022/09/15 04:21:57;;;;;;;;;16.33;12.67;;;;;;;;5030807;28;46310;-83
2022/09/15 04:24:23;;;;;;;;;15.00;14.00;;;;;;;;5060365;28;47123;-83
2022/09/15 04:26:48;;;;;;;;;17.00;16.67;;;;;;;;5047383;28;45442;-85
2022/09/15 04:29:15;;;;;;;;;16.33;13.67;;;;;;;;5028778;28;45419;-83
2022/09/15 04:31:40;;;;;;;;;8.67;8.67;;;;;;;;5028453;28;45538;-84
2022/09/15 04:34:06;;;;;;;;;15.67;15.33;;;;;;;;5028485;28;46737;-82
2022/09/15 04:36:31;;;;;;;;;13.33;13.33;;;;;;;;5042479;28;45731;-82
2022/09/15 04:38:57;;;;;;;;;14.33;10.67;;;;;;;;5052620;28;45542;-84
2022/09/15 04:41:23;;;;;;;;;19.00;16.67;;;;;;;;5048413;28;45388;-80
2022/09/15 04:43:49;;;;;;;;;26.33;23.00;;;;;;;;5042020;28;45688;-80
2022/09/15 04:46:15;;;;;;;;;18.67;12.33;;;;;;;;5028550;28;45127;-80
2022/09/15 04:48:41;;;;;;;;;18.33;15.67;;;;;;;;5037562;28;45978;-80
2022/09/15 04:51:09;;;;;;;;;17.67;14.00;;;;;;;;5030535;28;45669;-79
2022/09/15 04:53:34;;;;;;;;;16.00;13.00;;;;;;;;5042174;28;46640;-82
2022/09/15 04:56:10;;;;;;;;;15.33;15.33;;;;;;;;5025621;28;45513;-80
2022/09/15 04:58:43;;;;;;;;;16.67;14.00;;;;;;;;5026009;28;45915;-79
2022/09/15 05:01:10;;;;;;;;;15.00;13.33;;;;;;;;5035771;28;45433;-76
2022/09/15 05:03:36;;;;;;;;;11.67;10.67;;;;;;;;5041874;28;45956;-80
2022/09/15 05:06:02;;;;;;;;;11.67;10.00;;;;;;;;5029067;28;45467;-79
2022/09/15 05:08:28;;;;;;;;;17.67;16.67;;;;;;;;5039058;28;45678;-82
2022/09/15 05:10:57;;;;;;;;;12.67;11.67;;;;;;;;5040061;28;45385;-80
2022/09/15 05:13:25;;;;;;;;;20.00;15.00;;;;;;;;5032067;28;46855;-77
2022/09/15 05:15:51;;;;;;;;;18.00;15.00;;;;;;;;5037205;28;45445;-80
2022/09/15 05:18:17;;;;;;;;;16.67;12.67;;;;;;;;5038046;28;45826;-81
2022/09/15 05:21:02;;;;;;;;;15.00;13.33;;;;;;;;5031313;28;45633;-88
2022/09/15 05:23:27;;;;;;;;;16.33;15.33;;;;;;;;5037192;28;47227;-81
2022/09/15 05:25:54;;;;;;;;;13.67;11.00;;;;;;;;5029271;28;45300;-81
2022/09/15 05:28:23;;;;;;;;;15.00;15.00;;;;;;;;5034364;28;45513;-81
2022/09/15 05:30:48;;;;;;;;;20.00;14.00;;;;;;;;5019297;28;45851;-79
2022/09/15 05:33:14;;;;;;;;;20.33;15.33;;;;;;;;5042115;28;47003;-80
2022/09/15 05:35:39;;;;;;;;;20.67;17.00;;;;;;;;5050749;28;45482;-80
2022/09/15 05:38:07;;;;;;;;;21.00;15.00;;;;;;;;5037333;28;45559;-88
2022/09/15 05:40:32;;;;;;;;;15.00;14.67;;;;;;;;5026348;28;45681;-84
2022/09/15 05:42:58;;;;;;;;;20.67;14.33;;;;;;;;5042747;28;46128;-84
2022/09/15 05:45:23;;;;;;;;;22.67;15.33;;;;;;;;5038523;28;45708;-80
2022/09/15 05:47:49;;;;;;;;;24.67;20.67;;;;;;;;5039058;28;45489;-81
2022/09/15 05:50:17;;;;;;;;;22.67;20.33;;;;;;;;5035927;28;45328;-81
2022/09/15 05:52:42;;;;;;;;;26.00;21.00;;;;;;;;5027302;28;47560;-81
2022/09/15 05:55:08;;;;;;;;;18.67;16.00;;;;;;;;5025888;28;45502;-81
2022/09/15 05:57:34;;;;;;;;;21.33;18.67;;;;;;;;5022879;28;45758;-82
2022/09/15 05:59:59;;;;;;;;;19.67;19.00;;;;;;;;5027393;28;45443;-81
2022/09/15 06:02:25;;;;;;;;;21.33;20.00;;;;;;;;5040444;28;45570;-83
2022/09/15 06:04:50;;;;;;;;;23.00;18.33;;;;;;;;5042392;28;45330;-81
2022/09/15 06:07:15;;;;;;;;;28.33;20.00;;;;;;;;5053775;28;45887;-81
2022/09/15 06:09:41;;;;;;;;;26.33;20.33;;;;;;;;5041649;28;45608;-81
2022/09/15 06:12:06;;;;;;;;;25.00;20.33;;;;;;;;5039237;28;45466;-82
2022/09/15 06:14:31;;;;;;;;;25.33;17.67;;;;;;;;5045675;28;45464;-81
2022/09/15 06:16:57;;;;;;;;;24.67;19.67;;;;;;;;5041688;28;45612;-81
2022/09/15 06:19:22;;;;;;;;;28.33;24.67;;;;;;;;5054854;28;46192;-83
2022/09/15 06:21:48;;;;;;;;;22.33;19.00;;;;;;;;5029001;28;45457;-79
2022/09/15 06:24:16;;;;;;;;;20.67;17.33;;;;;;;;5042272;28;45315;-84
2022/09/15 06:26:41;;;;;;;;;26.00;23.00;;;;;;;;5037213;28;45555;-79
2022/09/15 06:29:10;;;;;;;;;22.00;19.33;;;;;;;;5040895;28;45604;-81
2022/09/15 06:31:35;;;;;;;;;19.67;17.67;;;;;;;;5036987;28;45522;-80
2022/09/15 06:34:02;;;;;;;;;26.00;18.33;;;;;;;;5023357;28;45482;-81
2022/09/15 06:36:28;;;;;;;;;28.67;21.33;;;;;;;;5021693;28;45471;-86
2022/09/15 06:38:54;;;;;;;;;17.67;16.33;;;;;;;;5050026;28;45789;-83
2022/09/15 06:41:20;;;;;;;;;18.00;9.00;;;;;;;;5048256;28;45348;-80
2022/09/15 06:43:48;;;;;;;;;18.00;14.33;;;;;;;;5021299;28;45376;-85
2022/09/15 06:46:23;;;;;;;;;21.00;19.67;;;;;;;;5024063;28;45563;-83
2022/09/15 06:48:50;;;;;;;;;23.00;20.33;;;;;;;;5032668;28;45070;-83
2022/09/15 06:51:17;;;;;;;;;20.33;14.67;;;;;;;;5020877;28;46849;-82
2022/09/15 06:53:42;;;;;;;;;17.33;17.33;;;;;;;;5030518;28;45500;-83
2022/09/15 06:56:09;;;;;;;;;18.00;15.67;;;;;;;;5047341;28;45343;-83
2022/09/15 06:58:35;;;;;;;;;16.33;15.33;;;;;;;;5041151;28;45423;-85
2022/09/15 07:01:02;;;;;;;;;17.00;17.00;;;;;;;;5066366;28;45486;-83
2022/09/15 07:03:27;;;;;;;;;22.67;18.33;;;;;;;;5045485;28;45975;-83
2022/09/15 07:05:52;;;;;;;;;14.33;13.00;;;;;;;;5028089;28;45516;-82
2022/09/15 07:08:18;;;;;;;;;17.67;12.67;;;;;;;;5028033;28;45580;-83
2022/09/15 07:10:44;;;;;;;;;21.67;17.33;;;;;;;;5046705;28;45607;-83
2022/09/15 07:13:12;;;;;;;;;20.67;14.67;;;;;;;;5043992;28;45443;-84
2022/09/15 07:15:40;;;;;;;;;21.67;15.00;;;;;;;;5043459;28;45352;-83
2022/09/15 07:18:08;;;;;;;;;18.00;17.67;;;;;;;;5026547;28;46104;-85
2022/09/15 07:20:37;;;;;;;;;14.67;13.67;;;;;;;;5057181;28;46693;-82
2022/09/15 07:23:03;;;;;;;;;17.33;14.33;;;;;;;;5030228;28;45659;-85
2022/09/15 07:25:31;;;;;;;;;14.00;12.33;;;;;;;;5034642;28;45436;-87
2022/09/15 07:27:57;;;;;;;;;16.33;15.67;;;;;;;;5046512;28;45454;-83
2022/09/15 07:30:22;;;;;;;;;19.67;15.67;;;;;;;;5027363;28;47007;-83
2022/09/15 07:32:48;;;;;;;;;18.00;17.00;;;;;;;;5033037;28;45574;-82
2022/09/15 07:35:22;;;;;;;;;19.33;18.00;;;;;;;;5034901;28;45529;-83
2022/09/15 07:37:51;;;;;;;;;21.33;15.33;;;;;;;;5041156;28;45756;-84
2022/09/15 07:40:17;;;;;;;;;14.67;12.67;;;;;;;;5037034;28;47078;-82
2022/09/15 07:42:43;;;;;;;;;17.67;14.67;;;;;;;;5029680;28;45389;-83
2022/09/15 07:45:11;;;;;;;;;16.67;14.33;;;;;;;;5034959;28;45416;-81
2022/09/15 07:47:38;;;;;;;;;20.33;16.33;;;;;;;;5060149;28;45463;-82
2022/09/15 07:50:04;;;;;;;;;20.00;16.33;;;;;;;;5047574;28;45784;-83
2022/09/15 07:52:30;;;;;;;;;20.00;17.67;;;;;;;;5027610;28;45554;-82
2022/09/15 07:54:56;;;;;;;;;16.00;14.67;;;;;;;;5030037;28;45555;-82
2022/09/15 07:57:21;;;;;;;;;23.67;17.00;;;;;;;;5044007;28;45458;-80
2022/09/15 08:00:00;;;;;;;;;19.67;16.67;;;;;;;;5045803;28;45375;-81
2022/09/15 08:02:25;;;;;;;;;17.00;13.00;;;;;;;;5032686;28;45763;-83
2022/09/15 08:05:00;;;;;;;;;19.00;18.00;;;;;;;;5029016;28;45456;-82
2022/09/15 08:07:25;;;;;;;;;20.00;17.67;;;;;;;;5027360;28;47036;-82
2022/09/15 08:09:51;;;;;;;;;13.00;11.33;;;;;;;;5040748;28;45383;-83
2022/09/15 08:12:22;;;;;;;;;16.00;14.33;;;;;;;;5039786;28;45920;-85
2022/09/15 08:14:48;;;;;;;;;19.67;15.33;;;;;;;;5024908;28;45728;-82
2022/09/15 08:17:16;;;;;;;;;12.00;12.00;;;;;;;;5040531;28;45580;-84
2022/09/15 08:19:44;;;;;;;;;18.67;14.33;;;;;;;;5027817;28;48527;-86
2022/09/15 08:22:12;;;;;;;;;25.00;16.00;;;;;;;;5043154;28;45957;-82
2022/09/15 08:24:38;;;;;;;;;14.67;11.67;;;;;;;;5022417;28;45452;-81
2022/09/15 08:27:03;;;;;;;;;14.00;14.00;;;;;;;;5033944;28;46119;-81
2022/09/15 08:29:36;;;;;;;;;15.67;13.33;;;;;;;;5022202;28;46577;-81
2022/09/15 08:32:01;;;;;;;;;11.67;10.67;;;;;;;;5040343;28;45585;-82
2022/09/15 08:34:30;;;;;;;;;11.33;10.33;;;;;;;;5021610;28;45589;-78
2022/09/15 08:36:58;;;;;;;;;12.00;10.33;;;;;;;;5036437;28;45101;-84
2022/09/15 08:39:23;;;;;;;;;8.00;8.00;;;;;;;;5040789;28;45861;-81
2022/09/15 08:41:50;;;;;;;;;11.33;9.33;;;;;;;;5036508;28;45434;-81
2022/09/15 08:44:44;;;;;;;;;12.33;10.67;;;;;;;;5040062;28;45645;-80
2022/09/15 08:47:12;;;;;;;;;13.33;9.33;;;;;;;;5019198;28;45955;-80
2022/09/15 08:49:53;;;;;;;;;12.67;9.00;;;;;;;;5036230;28;46522;-80
2022/09/15 08:52:22;;;;;;;;;9.33;8.33;;;;;;;;5039083;28;45860;-83
2022/09/15 08:54:49;;;;;;;;;7.67;6.67;;;;;;;;5021467;28;45576;-83
2022/09/15 08:57:17;;;;;;;;;8.50;8.50;;;;;;;;5035490;28;45875;-83
2022/09/15 08:59:43;;;;;;;;;5.75;4.75;;;;;;;;5039274;28;47527;-83
2022/09/15 09:02:11;;;;;;;;;7.25;5.00;;;;;;;;5037256;28;45464;-81
2022/09/15 09:04:37;;;;;;;;;4.75;4.75;;;;;;;;5033846;28;45462;-83
2022/09/15 09:07:25;;;;;;;;;8.75;6.00;;;;;;;;5044152;28;45450;-82
2022/09/15 09:10:11;;;;;;;;;4.75;4.00;;;;;;;;5026110;28;46996;-82
2022/09/15 09:12:43;;;;;;;;;7.00;4.50;;;;;;;;5033843;28;45648;-82
2022/09/15 09:15:19;;;;;;;;;3.25;3.25;;;;;;;;5023496;28;45393;-80
2022/09/15 09:18:06;;;;;;;;;5.00;3.00;;;;;;;;5019113;28;45388;-80
2022/09/15 09:20:49;;;;;;;;;6.00;3.25;;;;;;;;5039205;28;45455;-82
2022/09/15 09:23:16;;;;;;;;;2.75;2.75;;;;;;;;5028464;28;44759;-81
2022/09/15 09:25:45;;;;;;;;;3.75;2.75;;;;;;;;5032562;28;45119;-83
2022/09/15 09:28:22;;;;;;;;;3.00;3.00;;;;;;;;5046740;28;45237;-84
2022/09/15 09:30:47;;;;;;;;;2.50;2.00;;;;;;;;5036103;28;47447;-86
2022/09/15 09:33:33;;;;;;;;;2.00;2.00;;;;;;;;5025822;28;45400;-85
2022/09/15 09:36:00;;;;;;;;;2.00;2.00;;;;;;;;5031107;28;45333;-84
2022/09/15 09:38:35;;;;;;;;;2.75;2.75;;;;;;;;5031768;28;45540;-84
2022/09/15 09:41:03;;;;;;;;;5.25;5.00;;;;;;;;5042542;28;46129;-84
2022/09/15 09:43:30;;;;;;;;;4.25;4.25;;;;;;;;5028540;28;45826;-84
2022/09/15 09:45:56;;;;;;;;;3.75;2.75;;;;;;;;5045391;28;45030;-84
2022/09/15 09:48:23;;;;;;;;;4.25;3.25;;;;;;;;5039818;28;45474;-84
2022/09/15 09:50:51;;;;;;;;;2.00;2.00;;;;;;;;5025060;28;47210;-84
2022/09/15 09:53:22;;;;;;;;;2.00;1.00;;;;;;;;5040720;28;45455;-81
2022/09/15 09:55:48;;;;;;;;;1.00;1.00;;;;;;;;5038133;28;45828;-80
2022/09/15 09:58:17;;;;;;;;;5.75;3.50;;;;;;;;5020662;28;45572;-80
2022/09/15 10:00:43;;;;;;;;;5.25;1.25;;;;;;;;5033497;28;46213;-80
2022/09/15 10:03:29;;;;;;;;;2.25;2.00;;;;;;;;5050750;28;45524;-81
2022/09/15 10:06:00;;;;;;;;;3.00;3.00;;;;;;;;5019772;28;45776;-83
2022/09/15 10:08:25;;;;;;;;;2.00;2.00;;;;;;;;5036100;28;45867;-82
2022/09/15 10:10:52;;;;;;;;;2.00;2.00;;;;;;;;5020491;28;45685;-83
2022/09/15 10:13:18;;;;;;;;;3.50;2.00;;;;;;;;5042833;28;45760;-82
2022/09/15 10:15:52;;;;;;;;;3.50;3.50;;;;;;;;5022851;28;45603;-82
2022/09/15 10:18:29;;;;;;;;;3.00;1.75;;;;;;;;5036029;28;46208;-82
2022/09/15 10:20:55;;;;;;;;;6.25;4.00;;;;;;;;5021367;28;45811;-82
2022/09/15 10:23:23;;;;;;;;;1.75;1.00;;;;;;;;5038164;28;45419;-84
2022/09/15 10:25:48;;;;;;;;;5.00;3.00;;;;;;;;5018493;28;45373;-82
2022/09/15 10:28:15;;;;;;;;;4.00;3.00;;;;;;;;5013046;28;45752;-85
2022/09/15 10:31:02;;;;;;;;;5.00;4.00;;;;;;;;5036377;28;45944;-84
2022/09/15 10:33:29;;;;;;;;;3.00;3.00;;;;;;;;5025010;28;45831;-82
2022/09/15 10:36:00;;;;;;;;;2.75;2.75;;;;;;;;5035711;28;45574;-81
2022/09/15 10:38:30;;;;;;;;;2.50;1.00;;;;;;;;5020604;28;46047;-83
2022/09/15 10:41:14;;;;;;;;;2.00;2.00;;;;;;;;5023107;28;46900;-80
2022/09/15 10:43:52;;;;;;;;;3.00;2.00;;;;;;;;5026080;28;45611;-79
2022/09/15 10:46:26;;;;;;;;;1.00;1.00;;;;;;;;5039155;28;45851;-78
2022/09/15 10:49:02;;;;;;;;;1.50;1.50;;;;;;;;5016350;28;46148;-78
2022/09/15 10:51:27;;;;;;;;;2.00;2.00;;;;;;;;5015265;28;47251;-78
2022/09/15 10:54:10;;;;;;;;;2.25;2.25;;;;;;;;5038884;28;45793;-78
2022/09/15 10:56:41;;;;;;;;;2.25;2.25;;;;;;;;5035012;28;45861;-79
2022/09/15 10:59:20;;;;;;;;;1.00;1.00;;;;;;;;5031077;28;45678;-77
2022/09/15 11:02:04;;;;;;;;;1.00;1.00;;;;;;;;5032456;28;45948;-78
2022/09/15 11:04:38;;;;;;;;;2.00;2.00;;;;;;;;5033893;28;45554;-77
2022/09/15 11:07:29;;;;;;;;;2.00;2.00;;;;;;;;5038423;28;45628;-79
2022/09/15 11:09:54;;;;;;;;;2.00;2.00;;;;;;;;5015392;28;45506;-78
2022/09/15 11:12:38;;;;;;;;;2.75;2.75;;;;;;;;5026769;28;46926;-78
2022/09/15 11:15:04;;;;;;;;;3.25;2.00;;;;;;;;5023654;28;45200;-81
2022/09/15 11:17:44;;;;;;;;;1.25;1.25;;;;;;;;5046183;28;45519;-79
2022/09/15 11:20:17;;;;;;;;;2.25;1.75;;;;;;;;5048239;28;45440;-81
2022/09/15 11:22:58;;;;;;;;;2.00;2.00;;;;;;;;5024064;28;48062;-82
2022/09/15 11:25:25;;;;;;;;;1.00;1.00;;;;;;;;5036359;28;45501;-83
2022/09/15 11:27:54;;;;;;;;;3.25;3.25;;;;;;;;5054665;28;45414;-84
2022/09/15 11:30:22;;;;;;;;;2.50;2.50;;;;;;;;5025778;28;46077;-82
2022/09/15 11:32:57;;;;;;;;;3.25;3.00;;;;;;;;5039463;28;47120;-81
2022/09/15 11:35:35;;;;;;;;;2.25;2.25;;;;;;;;5028984;28;45433;-82
2022/09/15 11:38:20;;;;;;;;;2.25;2.25;;;;;;;;5024635;28;45669;-82
2022/09/15 11:41:05;;;;;;;;;3.00;3.00;;;;;;;;4987137;28;45352;-83
2022/09/15 11:43:57;;;;;;;;;2.00;2.00;;;;;;;;4970980;28;47270;-83
2022/09/15 11:46:42;;;;;;;;;3.75;2.75;;;;;;;;5021664;28;45496;-81
2022/09/15 11:49:15;;;;;;;;;1.00;1.00;;;;;;;;5027613;28;45417;-81
2022/09/15 11:51:43;;;;;;;;;1.75;1.75;;;;;;;;5021987;28;45430;-82
2022/09/15 11:54:12;;;;;;;;;2.00;2.00;;;;;;;;5017929;28;45491;-84
2022/09/15 11:56:42;;;;;;;;;4.00;4.00;;;;;;;;5029419;28;45759;-81
2022/09/15 11:59:31;;;;;;;;;5.00;3.50;;;;;;;;5023669;28;45673;-81
2022/09/15 12:02:15;;;;;;;;;4.00;4.00;;;;;;;;5023531;28;45554;-81
2022/09/15 12:04:57;;;;;;;;;5.25;5.25;;;;;;;;5020133;28;45624;-80
2022/09/15 12:07:27;;;;;;;;;5.50;4.75;;;;;;;;5010383;28;45689;-76
2022/09/15 12:10:03;;;;;;;;;3.50;2.00;;;;;;;;5018176;28;45541;-82
2022/09/15 12:12:28;;;;;;;;;3.00;3.00;;;;;;;;5025506;28;45489;-77
2022/09/15 12:14:54;;;;;;;;;1.75;1.25;;;;;;;;5000557;28;46787;-79
2022/09/15 12:17:38;;;;;;;;;5.25;5.25;;;;;;;;5027069;28;45514;-78
2022/09/15 12:20:11;;;;;;;;;5.50;3.00;;;;;;;;5002789;28;45560;-80
2022/09/15 12:22:48;;;;;;;;;3.00;3.00;;;;;;;;5009054;28;45539;-81
2022/09/15 12:25:39;;;;;;;;;3.75;2.75;;;;;;;;5034273;28;47940;-82
2022/09/15 12:28:31;;;;;;;;;2.00;2.00;;;;;;;;5014463;28;45452;-82
2022/09/15 12:31:15;;;;;;;;;2.00;2.00;;;;;;;;5009269;28;45710;-76
2022/09/15 12:33:55;;;;;;;;;2.00;2.00;;;;;;;;5014974;28;45289;-79
2022/09/15 12:36:30;;;;;;;;;4.00;4.00;;;;;;;;5008660;28;45552;-80
2022/09/15 12:38:55;;;;;;;;;2.50;2.50;;;;;;;;5026051;28;46146;-81
2022/09/15 12:41:21;;;;;;;;;3.75;2.00;;;;;;;;5006966;28;45330;-82
2022/09/15 12:43:52;;;;;;;;;3.00;3.00;;;;;;;;5037106;28;45372;-78
2022/09/15 12:46:21;;;;;;;;;3.00;3.00;;;;;;;;5037056;28;46841;-79
2022/09/15 12:48:48;;;;;;;;;3.00;3.00;;;;;;;;5020164;28;45551;-79
2022/09/15 12:51:21;;;;;;;;;4.25;3.50;;;;;;;;5051059;28;45892;-79
2022/09/15 12:53:53;;;;;;;;;4.75;3.50;;;;;;;;5026282;28;45437;-79
2022/09/15 12:56:26;;;;;;;;;4.00;4.00;;;;;;;;5050829;28;46914;-82
2022/09/15 12:58:53;;;;;;;;;2.50;2.50;;;;;;;;5037858;28;45841;-83
2022/09/15 13:01:18;;;;;;;;;3.50;3.00;;;;;;;;5004221;28;45464;-80
2022/09/15 13:03:44;;;;;;;;;6.00;6.00;;;;;;;;5034960;28;45704;-81
2022/09/15 13:06:09;;;;;;;;;3.50;3.50;;;;;;;;5039368;28;45962;-81
2022/09/15 13:08:37;;;;;;;;;11.50;6.50;;;;;;;;5040399;28;45479;-80
2022/09/15 13:11:02;;;;;;;;;3.00;3.00;;;;;;;;5038766;28;45490;-81
2022/09/15 13:13:33;;;;;;;;;3.75;3.75;;;;;;;;5037750;28;45793;-80
2022/09/15 13:15:59;;;;;;;;;5.00;5.00;;;;;;;;5039222;28;47303;-80
2022/09/15 13:18:28;;;;;;;;;6.00;3.00;;;;;;;;5039602;28;45610;-79
2022/09/15 13:20:58;;;;;;;;;5.00;5.00;;;;;;;;5021415;28;45507;-83
2022/09/15 13:23:26;;;;;;;;;3.75;3.75;;;;;;;;5047252;28;45517;-76
2022/09/15 13:25:55;;;;;;;;;5.25;5.25;;;;;;;;5034571;28;45862;-77
2022/09/15 13:28:21;;;;;;;;;5.00;5.00;;;;;;;;5010542;28;45627;-76
2022/09/15 13:31:06;;;;;;;;;4.50;4.50;;;;;;;;5049972;28;45452;-75
2022/09/15 13:33:34;;;;;;;;;8.25;7.50;;;;;;;;5037742;28;45467;-76
2022/09/15 13:36:05;;;;;;;;;6.00;4.75;;;;;;;;5035937;28;46097;-78
2022/09/15 13:38:53;;;;;;;;;10.00;7.00;;;;;;;;5026619;28;45485;-76
2022/09/15 13:41:24;;;;;;;;;6.00;6.00;;;;;;;;5035379;28;45502;-81
2022/09/15 13:43:56;;;;;;;;;5.33;5.33;;;;;;;;5035423;28;47001;-78
2022/09/15 13:46:32;;;;;;;;;8.75;6.00;;;;;;;;5036557;28;46037;-79
2022/09/15 13:49:06;;;;;;;;;7.67;7.67;;;;;;;;5035447;28;45132;-78
2022/09/15 13:51:33;;;;;;;;;9.33;8.33;;;;;;;;5017072;28;45374;-78
2022/09/15 13:54:01;;;;;;;;;8.25;8.25;;;;;;;;5047049;28;45966;-77
2022/09/15 13:56:53;;;;;;;;;4.25;4.25;;;;;;;;5020181;28;46479;-79
2022/09/15 13:59:21;;;;;;;;;11.00;9.00;;;;;;;;5024740;28;45642;-76
2022/09/15 14:01:46;;;;;;;;;10.00;10.00;;;;;;;;5036401;28;45443;-79
2022/09/15 14:04:31;;;;;;;;;8.00;7.00;;;;;;;;5036369;28;45720;-82
2022/09/15 14:06:59;;;;;;;;;10.33;8.33;;;;;;;;5034971;28;45931;-79
2022/09/15 14:09:27;;;;;;;;;10.67;10.67;;;;;;;;5037373;28;45748;-77
2022/09/15 14:11:55;;;;;;;;;10.00;10.00;;;;;;;;5036066;28;45775;-80
2022/09/15 14:14:29;;;;;;;;;11.75;11.25;;;;;;;;5033213;28;46113;-77
2022/09/15 14:16:55;;;;;;;;;11.25;11.25;;;;;;;;5037445;28;46350;-77
2022/09/15 14:19:26;;;;;;;;;8.67;7.33;;;;;;;;5041815;28;45574;-80
2022/09/15 14:22:30;;;;;;;;;14.33;11.33;;;;;;;;5035258;28;45423;-79
2022/09/15 14:25:03;;;;;;;;;8.33;8.00;;;;;;;;5015054;28;45549;-80
2022/09/15 14:27:32;;;;;;;;;10.00;10.00;;;;;;;;5037971;28;45676;-80
2022/09/15 14:30:03;;;;;;;;;12.25;10.00;;;;;;;;5021726;28;45632;-80
2022/09/15 14:32:36;;;;;;;;;11.00;10.00;;;;;;;;5021493;28;45313;-83
2022/09/15 14:35:05;;;;;;;;;10.00;8.75;;;;;;;;5045808;28;45606;-79
2022/09/15 14:37:34;;;;;;;;;10.33;9.33;;;;;;;;5040425;28;46351;-80
2022/09/15 14:40:10;;;;;;;;;11.00;9.00;;;;;;;;5043039;28;45561;-79
2022/09/15 14:42:39;;;;;;;;;10.67;9.67;;;;;;;;5030513;28;45369;-79
2022/09/15 14:45:11;;;;;;;;;10.33;10.33;;;;;;;;5021436;28;45847;-82
2022/09/15 14:47:37;;;;;;;;;15.33;11.33;;;;;;;;5038889;28;46653;-80
2022/09/15 14:50:19;;;;;;;;;9.33;9.33;;;;;;;;5052811;28;45539;-80
2022/09/15 14:52:53;;;;;;;;;10.33;9.33;;;;;;;;5022707;28;45407;-79